• Join FlightAware (Why Join?)
  • Login
  • US Flag 
04:46PM EST


 

Airport Tracker/Info


-or-


 

Live Flight TrackerFlight Track Log ✈ 9Y-BGI ✈ 11-Apr-2013 ✈ MKJP / KIN - MKJS / MBJ

Flight Track Log - Related Links

Times and Time Zones

All times are in EDT time to prevent confusion due to time zone crossing. See the 9Y-BGI flight status page for this flight to view local times or setup timezone preferences in your user account.

Time Position Orientation Groundspeed Altitude Reporting Facility
EDT Latitude Longitude Course Direction KTS MPH feet Rate Location/Type
11:31AM 18.0501 -77.0127 298° West  Level Estimated
11:32AM 18.0787 -77.0691 298° West  Level Estimated
11:33AM 18.1073 -77.1255 298° West  Level Estimated
11:34AM 18.1358 -77.1819 298° West  Level Estimated
11:35AM 18.1643 -77.2383 298° West  Level Estimated
11:36AM 18.1929 -77.2947 298° West  Level Estimated
11:37AM 18.2213 -77.3512 298° West  Level Estimated
11:38AM 18.2498 -77.4076 298° West  Level Estimated
11:39AM 18.2783 -77.4641 298° West  Level Estimated
11:40AM 18.3067 -77.5206 298° West  Level Estimated
11:41AM 18.3351 -77.5771 298° West  Level Estimated
11:42AM 18.3636 -77.6337 298° West  Level Estimated
11:43AM 18.3920 -77.6902 298° West  Level Estimated
11:44AM 18.4203 -77.7468 298° West  Level Estimated
11:45AM 18.4487 -77.8034 298° West  Level Estimated
11:46AM 18.4770 -77.8600 298° West  Level Estimated
11:47AM 18.5037 -77.9134 298° West  Level Estimated
11:48AM 18.5037 -77.9134 148° Southeast  Level Estimated
11:49AM 18.5037 -77.9134 148° Southeast  Level Estimated
11:50AM 18.5037 -77.9134 148° Southeast  Level Estimated
11:51AM 18.5037 -77.9134 148° Southeast  Level Estimated
11:52AM 18.5037 -77.9134 148° Southeast  Level Estimated
11:53AM 18.5037 -77.9134 148° Southeast  Level Estimated
11:54AM 18.5037 -77.9134 148° Southeast  Level Estimated
11:55AM 18.5037 -77.9134 148° Southeast  Level Estimated
11:56AM 18.5037 -77.9134 148° Southeast  Level Estimated
11:57AM 18.5037 -77.9134 148° Southeast  Level Estimated
11:58AM 18.5037 -77.9134 148° Southeast  Level Estimated
11:59AM 18.5037 -77.9134 148° Southeast  Level Estimated
12:00PM 18.5037 -77.9134 148° Southeast  Level Estimated
12:01PM 18.5037 -77.9134 148° Southeast  Level Estimated